Station Historical Data
Daily Summary for April 19, 2017 Units:  English    Metric   Both
« Previous Day
Next Day »
Daily Weekly Monthly Yearly Custom
  High: Low: Average:
Temperature: 77.5 °F 61.6 °F 66.5 °F
Dew Point: 63.5 °F 56.4 °F 59.2 °F
Humidity: 87% 60% 78%
Wind Speed: 1.0mph 0.0mph 0.1mph
Wind Gust: 3.0mph - -
Wind- - WNW
Pressure: 30.30 in 30.20 in -
Precipitation: 0.00 in    
Historical Graphs
 
 
Tabular Data for April 19, 2017
Time Temperature Dew Point Pressure Wind Wind Speed Wind Gust Humidity Rainfall Rate (Hourly) solar Conditions
00:00 64.9 °F 58.6 °F 30.26 in Calm   3.0 mph 80% 0.00 in WeatherDisplay:10.37 W/m2 SCT
00:15 64.8 °F 58.8 °F 30.26 in Calm   2.0 mph 81% 0.00 in WeatherDisplay:10.37 W/m2 SCT
00:30 64.7 °F 58.7 °F 30.26 in Calm   1.0 mph 81% 0.00 in WeatherDisplay:10.37 W/m2 SCT
00:45 64.6 °F 58.9 °F 30.26 in Calm   2.0 mph 82% 0.00 in WeatherDisplay:10.37 W/m2 SCT
01:00 64.2 °F 58.9 °F 30.27 in Calm   1.0 mph 83% 0.00 in WeatherDisplay:10.37 W/m2 SCT
01:15 64.0 °F 59.1 °F 30.27 in Calm     84% 0.00 in WeatherDisplay:10.37 W/m2 SCT
01:30 63.9 °F 59.0 °F 30.26 in Calm   1.0 mph 84% 0.00 in WeatherDisplay:10.37 W/m2 SCT
01:45 63.9 °F 59.0 °F 30.25 in Calm   1.0 mph 84% 0.00 in WeatherDisplay:10.37 W/m2 SCT
02:00 63.8 °F 58.5 °F 30.25 in Calm   2.0 mph 83% 0.00 in WeatherDisplay:10.37 W/m2 SCT
02:15 63.6 °F 58.7 °F 30.24 in Calm   2.0 mph 84% 0.00 in WeatherDisplay:10.37 W/m2 SCT
02:30 63.3 °F 58.4 °F 30.24 in Calm   2.0 mph 84% 0.00 in WeatherDisplay:10.37 W/m2 SCT
02:45 63.0 °F 58.1 °F 30.24 in Calm   1.0 mph 84% 0.00 in WeatherDisplay:10.37 W/m2 SCT
03:00 62.8 °F 57.9 °F 30.23 in Calm   2.0 mph 84% 0.00 in WeatherDisplay:10.37 W/m2 SCT
03:15 62.7 °F 58.1 °F 30.23 in WNW 1.0 mph 3.0 mph 85% 0.00 in WeatherDisplay:10.37 W/m2 SCT
03:30 62.6 °F 57.7 °F 30.23 in Calm   3.0 mph 84% 0.00 in WeatherDisplay:10.37 W/m2 SCT
03:45 62.5 °F 57.6 °F 30.22 in WNW 1.0 mph 2.0 mph 84% 0.00 in WeatherDisplay:10.37 W/m2 SCT
04:00 61.6 °F 56.4 °F 30.23 in Calm   1.0 mph 83% 0.00 in WeatherDisplay:10.37 W/m2 SCT
04:15 61.6 °F 56.4 °F 30.23 in Calm     83% 0.00 in WeatherDisplay:10.37 W/m2 SCT
04:30 61.6 °F 56.4 °F 30.23 in Calm     83% 0.00 in WeatherDisplay:10.37 W/m2 SCT
04:45 61.6 °F 56.4 °F 30.23 in Calm     83% 0.00 in WeatherDisplay:10.37 W/m2 SCT
05:00 61.6 °F 56.4 °F 30.23 in Calm     83% 0.00 in WeatherDisplay:10.37 W/m2 SCT
05:15 61.6 °F 56.4 °F 30.23 in Calm     83% 0.00 in WeatherDisplay:10.37 W/m2 SCT
05:30 61.6 °F 56.4 °F 30.24 in Calm     83% 0.00 in WeatherDisplay:10.37 W/m2 SCT
05:45 61.6 °F 56.4 °F 30.24 in Calm     83% 0.00 in WeatherDisplay:10.37 W/m2 SCT
06:00 61.6 °F 56.4 °F 30.24 in Calm     83% 0.00 in WeatherDisplay:10.37 W/m2 SCT
06:15 61.6 °F 56.4 °F 30.25 in Calm     83% 0.00 in WeatherDisplay:10.37 W/m2 SCT
06:30 61.6 °F 56.4 °F 30.25 in Calm     83% 0.00 in WeatherDisplay:10.37 W/m2 SCT
06:45 61.6 °F 56.4 °F 30.25 in Calm     83% 0.00 in WeatherDisplay:10.37 W/m2 SCT
07:00 61.6 °F 56.4 °F 30.26 in Calm     83% 0.00 in WeatherDisplay:10.37 W/m2 SCT
07:15 61.6 °F 56.4 °F 30.26 in Calm     83% 0.00 in WeatherDisplay:10.37 W/m2 SCT
07:30 61.6 °F 56.4 °F 30.26 in Calm     83% 0.00 in WeatherDisplay:10.37 W/m2 SCT
07:45 61.6 °F 56.4 °F 30.27 in Calm     83% 0.00 in WeatherDisplay:10.37 W/m2 SCT
08:00 61.6 °F 56.4 °F 30.27 in Calm     83% 0.00 in WeatherDisplay:10.37 W/m2 SCT
08:15 61.6 °F 56.4 °F 30.27 in Calm     83% 0.00 in WeatherDisplay:10.37 W/m2 SCT
08:30 61.6 °F 56.4 °F 30.27 in Calm     83% 0.00 in WeatherDisplay:10.37 W/m2 SCT
08:45 61.6 °F 56.4 °F 30.27 in Calm     83% 0.00 in WeatherDisplay:10.37 W/m2 SCT
09:00 61.6 °F 56.4 °F 30.28 in Calm     83% 0.00 in WeatherDisplay:10.37 W/m2 SCT
09:15 61.6 °F 56.4 °F 30.28 in Calm     83% 0.00 in WeatherDisplay:10.37 W/m2 SCT
09:30 61.6 °F 56.4 °F 30.28 in Calm     83% 0.00 in WeatherDisplay:10.37 W/m2 SCT
09:45 61.6 °F 56.4 °F 30.28 in Calm     83% 0.00 in WeatherDisplay:10.37 W/m2 SCT
10:00 63.0 °F 59.1 °F 30.28 in WNW 1.0 mph 3.0 mph 87% 0.00 in WeatherDisplay:10.37 W/m2 SCT
10:15 63.3 °F 59.4 °F 30.29 in Calm   2.0 mph 87% 0.00 in WeatherDisplay:10.37 W/m2 SCT
10:30 63.9 °F 59.9 °F 30.29 in Calm   1.0 mph 87% 0.00 in WeatherDisplay:10.37 W/m2 SCT
10:45 64.3 °F 59.7 °F 30.29 in Calm   1.0 mph 85% 0.00 in WeatherDisplay:10.37 W/m2 SCT
11:00 64.9 °F 59.9 °F 30.29 in Calm   3.0 mph 84% 0.00 in WeatherDisplay:10.37 W/m2 SCT
11:15 65.4 °F 60.5 °F 30.29 in Calm   1.0 mph 84% 0.00 in WeatherDisplay:10.37 W/m2 SCT
11:30 65.6 °F 60.3 °F 30.30 in Calm   1.0 mph 83% 0.00 in WeatherDisplay:10.37 W/m2 SCT
11:45 65.7 °F 60.4 °F 30.30 in Calm   2.0 mph 83% 0.00 in WeatherDisplay:10.37 W/m2 SCT
12:00 66.0 °F 60.7 °F 30.30 in Calm   2.0 mph 83% 0.00 in WeatherDisplay:10.37 W/m2 SCT
12:15 66.6 °F 60.9 °F 30.30 in Calm   3.0 mph 82% 0.00 in WeatherDisplay:10.37 W/m2 SCT
12:30 67.4 °F 61.4 °F 30.29 in Calm   2.0 mph 81% 0.00 in WeatherDisplay:10.37 W/m2 SCT
12:45 68.9 °F 62.1 °F 30.29 in Calm   2.0 mph 79% 0.00 in WeatherDisplay:10.37 W/m2 SCT
13:00 70.2 °F 62.3 °F 30.28 in Calm   2.0 mph 76% 0.00 in WeatherDisplay:10.37 W/m2 SCT
13:15 71.9 °F 62.4 °F 30.27 in Calm   3.0 mph 72% 0.00 in WeatherDisplay:10.37 W/m2 SCT
13:30 73.5 °F 62.7 °F 30.27 in Calm   2.0 mph 69% 0.00 in WeatherDisplay:10.37 W/m2 SCT
13:45 74.4 °F 63.1 °F 30.27 in Calm   2.0 mph 68% 0.00 in WeatherDisplay:10.37 W/m2 SCT
14:00 75.4 °F 62.8 °F 30.26 in West 1.0 mph 2.0 mph 65% 0.00 in WeatherDisplay:10.37 W/m2 SCT
14:15 75.8 °F 63.2 °F 30.26 in West 1.0 mph 2.0 mph 65% 0.00 in WeatherDisplay:10.37 W/m2 SCT
14:30 76.7 °F 61.7 °F 30.26 in Calm   3.0 mph 60% 0.00 in WeatherDisplay:10.37 W/m2 SCT
14:45 76.6 °F 62.2 °F 30.25 in WNW 1.0 mph 2.0 mph 61% 0.00 in WeatherDisplay:10.37 W/m2 SCT
15:00 77.1 °F 63.5 °F 30.25 in Calm   3.0 mph 63% 0.00 in WeatherDisplay:10.37 W/m2 SCT
15:15 75.9 °F 62.4 °F 30.24 in Calm   3.0 mph 63% 0.00 in WeatherDisplay:10.37 W/m2 SCT
15:30 76.0 °F 62.5 °F 30.23 in Calm   3.0 mph 63% 0.00 in WeatherDisplay:10.37 W/m2 SCT
15:45 76.9 °F 62.4 °F 30.23 in Calm   2.0 mph 61% 0.00 in WeatherDisplay:10.37 W/m2 SCT
16:00 77.2 °F 62.2 °F 30.22 in Calm   2.0 mph 60% 0.00 in WeatherDisplay:10.37 W/m2 SCT
16:15 77.5 °F 62.5 °F 30.21 in WNW 1.0 mph 2.0 mph 60% 0.00 in WeatherDisplay:10.37 W/m2 SCT
16:30 76.8 °F 61.9 °F 30.21 in NW 1.0 mph 3.0 mph 60% 0.00 in WeatherDisplay:10.37 W/m2 SCT
16:45 77.3 °F 62.8 °F 30.20 in Calm   1.0 mph 61% 0.00 in WeatherDisplay:10.37 W/m2 SCT
17:00 77.2 °F 62.2 °F 30.20 in Calm   3.0 mph 60% 0.00 in WeatherDisplay:10.37 W/m2 SCT
17:15 77.0 °F 62.0 °F 30.20 in Calm   1.0 mph 60% 0.00 in WeatherDisplay:10.37 W/m2 SCT
17:30 77.0 °F 62.0 °F 30.20 in Calm   2.0 mph 60% 0.00 in WeatherDisplay:10.37 W/m2 SCT
23:45 67.2 °F 62.5 °F 30.24 in Calm   1.0 mph 85% 0.00 in WeatherDisplay:10.37 W/m2 SCT
Piedmont Bend
Compliments of Weather Underground - 4 mb